createdAt,value
2018-06-02T00:00:48.842Z,62.87
2018-06-02T00:03:15.671Z,62.43
2018-06-02T00:05:42.497Z,60.90
2018-06-02T00:08:08.611Z,60.60
2018-06-02T00:10:34.690Z,65.80
2018-06-02T00:13:00.801Z,59.20
2018-06-02T00:15:27.645Z,61.77
2018-06-02T00:17:54.474Z,58.17
2018-06-02T00:20:20.557Z,60.90
2018-06-02T00:22:46.650Z,60.60
2018-06-02T00:25:12.737Z,63.70
2018-06-02T00:27:38.953Z,55.80
2018-06-02T00:30:05.045Z,59.17
2018-06-02T00:32:31.129Z,56.73
2018-06-02T00:34:57.256Z,56.73
2018-06-02T00:37:24.095Z,55.23
2018-06-02T00:39:50.237Z,52.87
2018-06-02T00:42:17.089Z,56.47
2018-06-02T00:44:43.178Z,54.03
2018-06-02T00:47:09.270Z,53.70
2018-06-02T00:49:35.350Z,54.03
2018-06-02T00:52:01.454Z,53.70
2018-06-02T00:54:39.762Z,53.93
2018-06-02T00:57:05.858Z,53.27
2018-06-02T00:59:31.934Z,53.50
2018-06-02T01:01:58.034Z,52.50
2018-06-02T01:04:25.881Z,52.50
2018-06-02T01:06:52.075Z,49.57
2018-06-02T01:09:18.898Z,47.17
2018-06-02T01:11:47.718Z,46.90
2018-06-02T01:14:13.858Z,46.07
2018-06-02T01:16:39.941Z,49.33
2018-06-02T01:19:06.770Z,50.37
2018-06-02T01:21:32.867Z,48.83
2018-06-02T01:23:58.987Z,47.90
2018-06-02T01:26:25.161Z,50.60
2018-06-02T01:28:51.237Z,49.87
2018-06-02T01:31:17.343Z,51.80
2018-06-02T01:33:43.428Z,49.90
2018-06-02T01:36:10.018Z,48.37
2018-06-02T01:38:36.106Z,52.43
2018-06-02T01:41:02.953Z,50.17
2018-06-02T01:43:29.891Z,53.33
2018-06-02T01:45:56.730Z,54.43
2018-06-02T01:48:23.020Z,53.57
2018-06-02T01:50:49.130Z,56.00
2018-06-02T01:53:15.246Z,57.87
2018-06-02T01:55:41.339Z,57.67
2018-06-02T01:58:07.426Z,57.50
2018-06-02T02:00:33.653Z,59.40
2018-06-02T02:02:59.730Z,58.33
2018-06-02T02:05:26.868Z,57.60
2018-06-02T02:07:53.074Z,58.23
2018-06-02T02:10:19.206Z,55.80
2018-06-02T02:12:45.289Z,56.27
2018-06-02T02:15:11.382Z,53.97
2018-06-02T02:17:45.478Z,51.10
2018-06-02T02:20:16.567Z,51.67
2018-06-02T02:22:48.414Z,51.47
2018-06-02T02:25:19.266Z,51.27
2018-06-02T02:33:52.642Z,49.33
2018-06-02T02:36:33.257Z,51.53
2018-06-02T02:39:23.860Z,50.47
2018-06-02T02:41:59.508Z,52.67
2018-06-02T02:45:01.784Z,52.13
2018-06-02T02:47:27.998Z,53.90
2018-06-02T02:49:54.137Z,56.33
2018-06-02T02:52:21.023Z,59.70
2018-06-02T02:54:47.159Z,56.30
2018-06-02T02:57:13.278Z,56.20
2018-06-02T02:59:39.368Z,55.60
2018-06-02T03:02:05.614Z,55.40
2018-06-02T03:04:31.710Z,52.87
2018-06-02T03:06:58.681Z,53.33
2018-06-02T03:09:24.935Z,47.30
2018-06-02T03:11:51.030Z,49.30
2018-06-02T03:14:17.137Z,49.00
2018-06-02T03:16:43.222Z,46.00
2018-06-02T03:19:09.331Z,43.87
2018-06-02T03:21:35.480Z,41.13
2018-06-02T03:24:01.574Z,40.77
2018-06-02T03:26:27.658Z,42.10
2018-06-02T03:28:54.509Z,39.33
2018-06-02T03:31:21.341Z,39.40
2018-06-02T03:33:48.241Z,39.53
2018-06-02T03:36:14.331Z,38.50
2018-06-02T03:38:40.417Z,37.67
2018-06-02T03:41:06.535Z,39.80
2018-06-02T03:43:32.617Z,38.53
2018-06-02T03:45:58.706Z,38.73
2018-06-02T03:48:24.839Z,38.43
2018-06-02T03:50:51.691Z,42.60
2018-06-02T03:53:18.514Z,40.77
2018-06-02T03:55:44.649Z,38.67
2018-06-02T03:58:11.577Z,43.80
2018-06-02T04:00:37.661Z,41.20
2018-06-02T04:03:03.768Z,46.03
2018-06-02T04:05:30.426Z,45.23
2018-06-02T04:07:56.510Z,42.83
2018-06-02T04:10:23.359Z,41.80
2018-06-02T04:12:49.497Z,41.90
2018-06-02T04:15:16.318Z,41.20
2018-06-02T04:17:42.627Z,41.73
2018-06-02T04:20:09.081Z,40.63
2018-06-02T04:22:35.183Z,42.90
2018-06-02T04:25:01.281Z,41.90
2018-06-02T04:27:27.409Z,42.50
2018-06-02T04:29:53.511Z,41.20
2018-06-02T04:32:19.603Z,42.60
2018-06-02T04:34:45.701Z,43.00
2018-06-02T04:37:11.794Z,45.27
2018-06-02T04:39:37.891Z,43.30
2018-06-02T04:42:04.787Z,41.57
2018-06-02T04:44:30.879Z,42.43
2018-06-02T04:46:57.701Z,42.57
2018-06-02T04:49:23.827Z,44.67
2018-06-02T04:51:49.922Z,46.00
2018-06-02T04:54:16.327Z,45.30
2018-06-02T04:56:42.426Z,48.87
2018-06-02T04:59:08.522Z,46.50
2018-06-02T05:01:34.639Z,46.40
2018-06-02T05:04:00.724Z,44.60
2018-06-02T05:06:26.822Z,42.87
2018-06-02T05:08:53.691Z,42.67
2018-06-02T05:11:19.787Z,40.10
2018-06-02T05:13:46.641Z,40.10
2018-06-02T05:16:13.518Z,40.40
2018-06-02T05:18:39.602Z,40.23
2018-06-02T05:21:06.466Z,38.10
2018-06-02T05:23:32.565Z,36.97
2018-06-02T05:25:58.664Z,39.60
2018-06-02T05:28:24.888Z,40.50
2018-06-02T05:30:51.730Z,38.73
2018-06-02T05:33:18.557Z,38.20
2018-06-02T05:35:44.675Z,42.67
2018-06-02T05:38:10.761Z,39.43
2018-06-02T05:40:36.913Z,37.57
2018-06-02T05:43:02.977Z,36.13
2018-06-02T05:45:29.071Z,38.30
2018-06-02T05:47:55.185Z,38.93
2018-06-02T05:50:22.013Z,40.70
2018-06-02T05:52:48.868Z,35.97
2018-06-02T05:55:15.845Z,33.10
2018-06-02T05:57:42.081Z,33.80
2018-06-02T06:00:08.165Z,35.03
2018-06-02T06:02:34.274Z,34.10
2018-06-02T06:05:00.366Z,33.63
2018-06-02T06:07:26.461Z,33.23
2018-06-02T06:09:52.584Z,33.63
2018-06-02T06:12:18.697Z,33.80
2018-06-02T06:14:45.873Z,33.10
2018-06-02T06:17:11.983Z,30.80
2018-06-02T06:19:38.149Z,31.30
2018-06-02T06:22:04.196Z,33.07
2018-06-02T06:24:30.291Z,32.07
2018-06-02T06:26:56.419Z,30.20
2018-06-02T06:29:22.513Z,31.00
2018-06-02T06:31:48.614Z,30.63
2018-06-02T06:34:15.442Z,31.53
2018-06-02T06:36:41.562Z,31.53
2018-06-02T06:39:07.702Z,30.50
2018-06-02T06:41:33.745Z,32.67
2018-06-02T06:44:00.570Z,32.67
2018-06-02T06:46:26.674Z,33.83
2018-06-02T06:48:52.893Z,30.53
2018-06-02T06:51:18.992Z,32.47
2018-06-02T06:53:45.071Z,33.70
2018-06-02T06:56:11.189Z,32.07
2018-06-02T06:58:37.333Z,33.43
2018-06-02T07:01:03.444Z,32.37
2018-06-02T07:03:29.525Z,31.00
2018-06-02T07:05:55.614Z,34.03
2018-06-02T07:08:22.473Z,34.40
2018-06-02T07:10:49.317Z,34.67
2018-06-02T07:13:16.150Z,34.07
2018-06-02T07:15:43.190Z,33.53
2018-06-02T07:18:09.289Z,35.47
2018-06-02T07:20:35.399Z,33.80
2018-06-02T07:23:01.500Z,32.50
2018-06-02T07:25:27.593Z,33.47
2018-06-02T07:27:54.441Z,33.97
2018-06-02T07:30:21.270Z,41.50
2018-06-02T07:32:49.562Z,33.97
2018-06-02T07:35:16.552Z,34.53
2018-06-02T07:37:43.964Z,36.73
2018-06-02T07:40:10.884Z,32.90
2018-06-02T07:42:37.075Z,32.17
2018-06-02T07:45:03.256Z,31.07
2018-06-02T07:47:29.525Z,31.90
2018-06-02T07:49:55.835Z,31.20
2018-06-02T07:52:21.931Z,31.63
2018-06-02T07:54:48.117Z,31.43
2018-06-02T07:57:14.360Z,28.17
2018-06-02T07:59:40.558Z,31.30
2018-06-02T08:02:06.702Z,30.87
2018-06-02T08:04:32.818Z,31.80
2018-06-02T08:06:58.943Z,29.97
2018-06-02T08:09:25.095Z,32.67
2018-06-02T08:11:51.243Z,34.10
2018-06-02T08:14:17.406Z,38.50
2018-06-02T08:16:44.309Z,35.23
2018-06-02T08:19:10.451Z,33.50
2018-06-02T08:21:37.349Z,34.90
2018-06-02T08:24:03.491Z,36.37
2018-06-02T08:26:29.627Z,36.10
2018-06-02T08:28:55.782Z,35.20
2018-06-02T08:31:22.657Z,36.27
2018-06-02T08:33:48.796Z,35.00
2018-06-02T08:36:14.916Z,35.97
2018-06-02T08:38:41.057Z,34.23
2018-06-02T08:41:07.192Z,33.87
2018-06-02T08:43:33.490Z,32.67
2018-06-02T08:45:59.663Z,35.37
2018-06-02T08:48:25.782Z,33.70
2018-06-02T08:50:51.954Z,35.37
2018-06-02T08:53:18.842Z,34.07
2018-06-02T08:55:44.978Z,34.27
2018-06-02T08:58:11.867Z,36.90
2018-06-02T09:00:39.289Z,31.40
2018-06-02T09:03:05.937Z,35.03
2018-06-02T09:05:32.110Z,38.80
2018-06-02T09:07:58.218Z,42.50
2018-06-02T09:10:25.102Z,40.57
2018-06-02T09:12:51.243Z,44.60
2018-06-02T09:15:17.339Z,45.50
2018-06-02T09:17:43.474Z,46.53
2018-06-02T09:20:09.731Z,45.87
2018-06-02T09:22:35.814Z,49.07
2018-06-02T09:25:01.938Z,47.03
2018-06-02T09:27:28.047Z,46.00
2018-06-02T09:29:54.621Z,46.63
2018-06-02T09:32:20.739Z,44.37
2018-06-02T09:34:46.838Z,42.07
2018-06-02T09:37:13.696Z,37.37
2018-06-02T09:39:39.802Z,36.97
2018-06-02T09:42:06.998Z,35.50
2018-06-02T09:44:33.108Z,35.70
2018-06-02T09:46:59.206Z,33.57
2018-06-02T09:49:26.065Z,38.40
2018-06-02T09:51:52.973Z,38.33
2018-06-02T09:54:19.062Z,36.63
2018-06-02T09:56:45.146Z,35.17
2018-06-02T09:59:12.011Z,37.20
2018-06-02T10:01:38.094Z,36.40
2018-06-02T10:04:04.247Z,36.77
2018-06-02T10:06:31.085Z,33.93
2018-06-02T10:08:57.922Z,35.67
2018-06-02T10:11:24.137Z,33.93
2018-06-02T10:13:50.272Z,34.23
2018-06-02T10:16:16.403Z,36.17
2018-06-02T10:18:42.506Z,39.77
2018-06-02T10:21:08.605Z,37.30
2018-06-02T10:23:34.767Z,35.10
2018-06-02T10:26:00.884Z,40.70
2018-06-02T10:28:27.018Z,41.20
2018-06-02T10:30:53.141Z,42.10
2018-06-02T10:33:19.251Z,39.00
2018-06-02T10:35:45.411Z,39.83
2018-06-02T10:38:11.481Z,39.87
2018-06-02T10:40:37.582Z,42.50
2018-06-02T10:43:04.449Z,44.40
2018-06-02T10:45:30.590Z,36.90
2018-06-02T10:47:56.714Z,35.63
2018-06-02T10:50:22.915Z,35.07
2018-06-02T10:52:49.031Z,33.47
2018-06-02T10:55:16.776Z,34.13
2018-06-02T10:57:42.964Z,33.93
2018-06-02T11:00:09.152Z,33.40
2018-06-02T11:02:36.038Z,33.90
2018-06-02T11:05:02.294Z,34.63
2018-06-02T11:07:28.437Z,36.10
2018-06-02T11:09:54.510Z,36.83
2018-06-02T11:12:20.630Z,30.90
2018-06-02T11:14:46.883Z,32.23
2018-06-02T11:17:13.037Z,31.87
2018-06-02T11:19:39.125Z,30.27
2018-06-02T11:22:05.331Z,30.00
2018-06-02T11:24:31.535Z,31.67
2018-06-02T11:26:58.526Z,30.43
2018-06-02T11:29:24.638Z,27.07
2018-06-02T11:31:50.842Z,28.70
2018-06-02T11:34:17.679Z,27.30
2018-06-02T11:36:44.822Z,25.20
2018-06-02T11:39:10.973Z,24.43
2018-06-02T11:41:37.125Z,23.10
2018-06-02T11:44:03.260Z,22.17
2018-06-02T11:46:29.416Z,23.43
2018-06-02T11:48:58.580Z,20.90
2018-06-02T11:51:24.691Z,21.17
2018-06-02T11:53:50.790Z,18.60
2018-06-02T11:56:17.640Z,18.93
2018-06-02T11:58:43.735Z,19.03
2018-06-02T12:01:09.825Z,20.23
2018-06-02T12:03:35.917Z,19.67
2018-06-02T12:06:02.807Z,19.60
2018-06-02T12:08:29.237Z,19.10
2018-06-02T12:10:55.315Z,19.07
2018-06-02T12:13:22.220Z,17.83
2018-06-02T12:15:48.310Z,16.63
2018-06-02T12:18:14.406Z,16.63
2018-06-02T12:20:41.273Z,17.10
2018-06-02T12:23:08.341Z,16.00
2018-06-02T12:25:34.429Z,16.70
2018-06-02T12:28:00.586Z,14.77
2018-06-02T12:30:26.697Z,15.80
2018-06-02T12:32:52.827Z,15.80
2018-06-02T12:35:19.066Z,14.90
2018-06-02T12:37:45.244Z,14.70
2018-06-02T12:40:12.124Z,15.23
2018-06-02T12:42:38.202Z,13.50
2018-06-02T12:45:04.295Z,14.10
2018-06-02T12:47:30.378Z,15.17
2018-06-02T12:49:56.463Z,13.13
2018-06-02T12:52:22.589Z,15.10
2018-06-02T12:54:48.682Z,15.07
2018-06-02T12:57:14.781Z,14.30
2018-06-02T12:59:41.766Z,14.17
2018-06-02T13:02:07.869Z,18.30
2018-06-02T13:04:34.001Z,23.87
2018-06-02T13:07:01.023Z,21.17
2018-06-02T13:09:27.886Z,20.83
2018-06-02T13:11:55.164Z,14.73
2018-06-02T13:14:21.245Z,19.80
2018-06-02T13:16:47.337Z,16.83
2018-06-02T13:19:13.451Z,14.70
2018-06-02T13:21:39.529Z,13.97
2018-06-02T13:24:07.728Z,14.10
2018-06-02T13:26:35.529Z,13.03
2018-06-02T13:29:02.454Z,12.43
2018-06-02T13:31:28.549Z,13.03
2018-06-02T13:33:55.479Z,13.57
2018-06-02T13:36:21.592Z,13.30
2018-06-02T13:38:47.705Z,14.23
2018-06-02T13:41:13.797Z,12.80
2018-06-02T13:43:39.886Z,12.83
2018-06-02T13:46:06.718Z,12.40
2018-06-02T13:48:32.817Z,12.20
2018-06-02T13:50:58.906Z,11.47
2018-06-02T13:53:25.018Z,11.10
2018-06-02T13:55:51.961Z,11.17
2018-06-02T13:58:18.789Z,10.50
2018-06-02T14:00:44.878Z,10.63
2018-06-02T14:03:10.974Z,9.50
2018-06-02T14:05:37.062Z,9.70
2018-06-02T14:08:03.374Z,10.17
2018-06-02T14:10:29.550Z,10.30
2018-06-02T14:12:55.666Z,10.63
2018-06-02T14:15:22.490Z,10.37
2018-06-02T14:17:48.604Z,9.73
2018-06-02T14:20:14.702Z,9.80
2018-06-02T14:22:40.797Z,10.13
2018-06-02T14:25:06.917Z,11.47
2018-06-02T14:27:33.760Z,11.37
2018-06-02T14:30:00.597Z,11.90
2018-06-02T14:32:27.472Z,10.57
2018-06-02T14:34:53.553Z,11.57
2018-06-02T14:37:20.378Z,10.73
2018-06-02T14:39:46.486Z,10.27
2018-06-02T14:42:12.573Z,11.53
2018-06-02T14:44:38.661Z,9.93
2018-06-02T14:47:04.806Z,10.57
2018-06-02T14:49:31.682Z,11.47
2018-06-02T14:51:57.770Z,11.13
2018-06-02T14:54:23.857Z,11.60
2018-06-02T14:56:50.011Z,9.40
2018-06-02T14:59:16.097Z,11.00
2018-06-02T15:01:42.218Z,11.80
2018-06-02T15:04:08.332Z,12.30
2018-06-02T15:06:34.438Z,12.33
2018-06-02T15:09:01.283Z,12.17
2018-06-02T15:11:28.105Z,14.03
2018-06-02T15:13:54.198Z,15.93
2018-06-02T15:16:20.305Z,13.47
2018-06-02T15:18:46.599Z,14.17
2018-06-02T15:21:12.695Z,14.57
2018-06-02T15:23:38.785Z,14.97
2018-06-02T15:26:04.894Z,14.40
2018-06-02T15:28:31.004Z,15.13
2018-06-02T15:30:57.839Z,16.00
2018-06-02T15:33:24.125Z,15.93
2018-06-02T15:35:50.249Z,14.07
2018-06-02T15:38:16.351Z,15.37
2018-06-02T15:40:42.449Z,15.60
2018-06-02T15:43:08.529Z,15.37
2018-06-02T15:45:34.651Z,15.20
2018-06-02T15:48:00.749Z,17.40
2018-06-02T15:50:27.203Z,15.17
2018-06-02T15:52:53.302Z,16.37
2018-06-02T15:55:20.122Z,16.10
2018-06-02T15:57:47.093Z,15.47
2018-06-02T16:00:13.175Z,15.77
2018-06-02T16:02:39.386Z,15.83
2018-06-02T16:05:05.381Z,15.40
2018-06-02T16:07:31.482Z,16.10
2018-06-02T16:09:58.463Z,17.63
2018-06-02T16:12:24.546Z,15.97
2018-06-02T16:14:50.634Z,16.27
2018-06-02T16:17:16.724Z,16.87
2018-06-02T16:19:43.174Z,15.87
2018-06-02T16:22:09.258Z,16.10
2018-06-02T16:24:35.349Z,15.97
2018-06-02T16:27:01.439Z,15.73
2018-06-02T16:29:27.530Z,16.80
2018-06-02T16:31:53.617Z,18.30
2018-06-02T16:34:19.698Z,16.80
2018-06-02T16:36:46.533Z,19.60
2018-06-02T16:39:13.351Z,17.70
2018-06-02T16:41:39.465Z,19.53
2018-06-02T16:44:05.552Z,17.10
2018-06-02T16:46:31.755Z,19.60
2018-06-02T16:48:57.834Z,19.27
2018-06-02T16:51:23.917Z,17.60
2018-06-02T16:53:50.749Z,16.37
2018-06-02T16:56:17.569Z,19.03
2018-06-02T16:58:43.669Z,18.90
2018-06-02T17:01:09.742Z,19.90
2018-06-02T17:03:36.698Z,19.10
2018-06-02T17:06:02.838Z,19.50
2018-06-02T17:08:29.014Z,19.10
2018-06-02T17:10:55.113Z,17.77
2018-06-02T17:13:21.202Z,17.60
2018-06-02T17:15:48.046Z,19.40
2018-06-02T17:18:14.878Z,20.13
2018-06-02T17:20:41.717Z,18.07
2018-06-02T17:23:07.814Z,18.80
2018-06-02T17:25:33.894Z,18.13
2018-06-02T17:28:00.462Z,18.80
2018-06-02T17:30:26.559Z,20.73
2018-06-02T17:32:52.661Z,20.17
2018-06-02T17:35:19.485Z,20.37
2018-06-02T17:37:45.603Z,19.60
2018-06-02T17:40:11.704Z,19.47
2018-06-02T17:42:38.145Z,21.03
2018-06-02T17:45:04.242Z,21.33
2018-06-02T17:47:30.444Z,21.97
2018-06-02T17:49:57.277Z,22.40
2018-06-02T17:52:23.359Z,19.70
2018-06-02T17:54:49.465Z,21.27
2018-06-02T17:57:15.641Z,20.63
2018-06-02T17:59:41.742Z,21.70
2018-06-02T18:02:08.020Z,23.63
2018-06-02T18:04:34.874Z,22.47
2018-06-02T18:07:01.729Z,19.50
2018-06-02T18:09:27.837Z,22.47
2018-06-02T18:11:54.018Z,21.37
2018-06-02T18:14:20.221Z,22.77
2018-06-02T18:16:46.313Z,24.50
2018-06-02T18:19:13.142Z,22.77
2018-06-02T18:21:39.229Z,23.70
2018-06-02T18:24:05.342Z,23.57
2018-06-02T18:26:31.437Z,23.60
2018-06-02T18:28:58.254Z,23.97
2018-06-02T18:31:24.337Z,23.87
2018-06-02T18:33:50.425Z,24.30
2018-06-02T18:36:17.268Z,24.47
2018-06-02T18:38:43.341Z,22.10
2018-06-02T18:41:09.442Z,23.30
2018-06-02T18:43:35.554Z,20.40
2018-06-02T18:46:02.469Z,23.57
2018-06-02T18:48:28.590Z,21.43
2018-06-02T18:50:54.687Z,22.00
2018-06-02T18:53:20.769Z,22.10
2018-06-02T18:55:47.602Z,22.30
2018-06-02T18:58:13.762Z,20.93
2018-06-02T19:00:39.842Z,21.33
2018-06-02T19:03:05.957Z,23.47
2018-06-02T19:05:32.090Z,23.60
2018-06-02T19:07:58.218Z,24.53
2018-06-02T19:10:24.309Z,22.17
2018-06-02T19:12:50.433Z,21.80
2018-06-02T19:15:16.619Z,24.20
2018-06-02T19:17:43.414Z,23.73
2018-06-02T19:20:09.502Z,23.87
2018-06-02T19:22:36.355Z,21.83
2018-06-02T19:25:02.486Z,24.20
2018-06-02T19:27:28.610Z,24.47
2018-06-02T19:29:54.713Z,23.83
2018-06-02T19:32:21.541Z,24.23
2018-06-02T19:34:47.645Z,25.13
2018-06-02T19:37:13.743Z,24.40
2018-06-02T19:39:39.869Z,26.97
2018-06-02T19:42:06.011Z,26.30
2018-06-02T19:44:32.182Z,24.63
2018-06-02T19:46:58.398Z,23.87
2018-06-02T19:49:24.710Z,27.17
2018-06-02T19:51:50.817Z,25.00
2018-06-02T19:54:16.922Z,27.10
2018-06-02T19:56:43.034Z,27.37
2018-06-02T19:59:09.869Z,26.50
2018-06-02T20:01:36.721Z,27.17
2018-06-02T20:04:02.828Z,28.60
2018-06-02T20:06:28.940Z,27.90
2018-06-02T20:08:55.030Z,28.50
2018-06-02T20:11:21.170Z,30.87
2018-06-02T20:13:47.273Z,29.50
2018-06-02T20:16:13.410Z,29.57
2018-06-02T20:18:39.537Z,30.50
2018-06-02T20:21:05.628Z,28.80
2018-06-02T20:23:32.513Z,29.47
2018-06-02T20:25:58.581Z,31.67
2018-06-02T20:28:24.785Z,27.70
2018-06-02T20:30:50.884Z,28.87
2018-06-02T20:33:17.033Z,29.13
2018-06-02T20:35:43.124Z,27.23
2018-06-02T20:38:09.225Z,30.53
2018-06-02T20:40:36.070Z,30.23
2018-06-02T20:43:03.681Z,33.17
2018-06-02T20:45:30.969Z,28.80
2018-06-02T20:47:57.161Z,29.60
2018-06-02T20:50:23.249Z,29.43
2018-06-02T20:52:50.171Z,29.13
2018-06-02T20:55:16.261Z,29.40
2018-06-02T20:57:42.337Z,28.60
2018-06-02T21:00:09.398Z,31.20
2018-06-02T21:02:36.226Z,30.40
2018-06-02T21:05:02.347Z,32.23
2018-06-02T21:07:28.515Z,31.60
2018-06-02T21:09:54.615Z,30.97
2018-06-02T21:12:21.452Z,31.53
2018-06-02T21:14:48.298Z,28.23
2018-06-02T21:17:15.137Z,30.63
2018-06-02T21:19:42.090Z,31.87
2018-06-02T21:22:08.930Z,32.33
2018-06-02T21:24:35.762Z,31.77
2018-06-02T21:27:02.251Z,30.07
2018-06-02T21:29:28.386Z,32.27
2018-06-02T21:31:54.476Z,31.10
2018-06-02T21:34:21.304Z,29.53
2018-06-02T21:36:48.157Z,31.87
2018-06-02T21:39:15.009Z,33.77
2018-06-02T21:41:41.177Z,30.87
2018-06-02T21:44:07.279Z,32.53
2018-06-02T21:46:33.402Z,33.80
2018-06-02T21:48:59.573Z,33.07
2018-06-02T21:51:25.678Z,32.33
2018-06-02T21:53:51.861Z,32.63
2018-06-02T21:56:18.826Z,31.73
2018-06-02T21:58:44.921Z,31.63
2018-06-02T22:01:12.517Z,34.20
2018-06-02T22:03:38.754Z,32.20
2018-06-02T22:06:05.110Z,32.27
2018-06-02T22:08:31.209Z,31.77
2018-06-02T22:10:57.318Z,34.27
2018-06-02T22:13:23.746Z,35.20
2018-06-02T22:15:49.882Z,31.77
2018-06-02T22:18:16.006Z,34.50
2018-06-02T22:20:42.109Z,32.70
2018-06-02T22:23:08.997Z,32.27
2018-06-02T22:25:35.129Z,33.30
2018-06-02T22:28:01.242Z,32.37
2018-06-02T22:30:27.354Z,33.07
2018-06-02T22:32:53.525Z,33.60
2018-06-02T22:35:19.637Z,33.13
2018-06-02T22:37:45.713Z,34.60
2018-06-02T22:40:11.894Z,34.33
2018-06-02T22:42:37.987Z,34.60
2018-06-02T22:45:04.072Z,36.07
2018-06-02T22:47:30.191Z,36.30
2018-06-02T22:49:56.269Z,36.40
2018-06-02T22:52:22.488Z,37.53
2018-06-02T22:54:48.577Z,32.30
2018-06-02T22:57:14.782Z,34.27
2018-06-02T22:59:40.889Z,37.80
2018-06-02T23:02:06.994Z,38.73
2018-06-02T23:04:33.113Z,38.10
2018-06-02T23:07:00.490Z,38.00
2018-06-02T23:09:26.582Z,33.33
2018-06-02T23:11:53.413Z,34.23
2018-06-02T23:14:19.505Z,40.07
2018-06-02T23:16:45.591Z,35.40
2018-06-02T23:19:12.417Z,42.40
2018-06-02T23:21:39.309Z,38.77
2018-06-02T23:24:05.430Z,41.50
2018-06-02T23:26:31.517Z,38.63
2018-06-02T23:28:58.365Z,37.90
2018-06-02T23:31:25.190Z,42.20
2018-06-02T23:33:51.285Z,40.20
2018-06-02T23:36:17.393Z,41.60
2018-06-02T23:38:43.477Z,41.70
2018-06-02T23:41:10.395Z,42.60
2018-06-02T23:43:36.476Z,41.70
2018-06-02T23:46:02.573Z,44.00
2018-06-02T23:48:29.420Z,42.60
2018-06-02T23:50:56.305Z,42.87
2018-06-02T23:53:22.426Z,42.40
2018-06-02T23:55:48.511Z,40.20
2018-06-02T23:58:15.349Z,42.97
